Time;durP1;ratioP1;P1;durP2;ratioP2;P2;SDS_P1;SDS_P2;PMS_P1;PMS_P2;Temp;Humidity;BMP_temperature;BMP_pressure;BME280_temperature;BME280_humidity;BME280_pressure;Samples;Min_cycle;Max_cycle;Signal;HPM_P1;HPM_P2
2023/11/16 00:01:37;;;;;;;4.30;2.85;;;;;;;10.22;61.32;95388.56;6127612;23;20021;-86
2023/11/16 00:04:06;;;;;;;3.55;2.53;;;;;;;10.43;60.71;95389.78;6127818;23;20010;-88
2023/11/16 00:06:29;;;;;;;5.13;2.45;;;;;;;10.48;60.83;95385.69;6097821;23;20025;-87
2023/11/16 00:08:55;;;;;;;3.83;3.00;;;;;;;10.28;61.07;95384.47;6098409;23;20069;-87
2023/11/16 00:11:20;;;;;;;4.30;2.60;;;;;;;10.24;61.04;95391.00;6106303;23;19997;-87
2023/11/16 00:13:46;;;;;;;4.13;3.03;;;;;;;10.35;61.57;95399.25;6123048;23;20002;-87
2023/11/16 00:16:16;;;;;;;7.00;3.15;;;;;;;10.28;61.76;95389.66;6109318;23;20049;-88
2023/11/16 00:21:09;;;;;;;4.30;2.78;;;;;;;10.36;61.23;95400.88;6137038;23;20101;-88
2023/11/16 00:23:35;;;;;;;4.38;2.50;;;;;;;10.56;60.38;95403.03;6098273;23;20018;-87
2023/11/16 00:26:02;;;;;;;4.40;2.90;;;;;;;10.38;61.24;95392.91;6098238;23;20021;-87
2023/11/16 00:28:28;;;;;;;3.60;3.08;;;;;;;10.36;61.29;95382.69;6097506;23;20006;-87
2023/11/16 00:30:54;;;;;;;3.85;2.92;;;;;;;10.45;60.99;95395.63;6097462;23;20014;-87
2023/11/16 00:33:20;;;;;;;5.15;2.88;;;;;;;10.33;60.95;95390.81;6097526;23;20002;-87
2023/11/16 00:35:46;;;;;;;5.30;2.17;;;;;;;10.37;60.54;95386.06;6073971;23;20010;-88
2023/11/16 00:38:15;;;;;;;3.58;2.65;;;;;;;10.24;61.62;95384.00;6098180;23;20021;-87
2023/11/16 00:50:52;;;;;;;5.28;3.13;;;;;;;10.33;60.28;95385.59;6123181;23;20025;-86
2023/11/16 00:55:46;;;;;;;4.68;2.70;;;;;;;10.04;61.57;95385.44;6139704;23;20042;-87
2023/11/16 00:58:11;;;;;;;6.10;3.13;;;;;;;10.08;61.52;95382.31;6098265;23;20017;-86
2023/11/16 01:00:40;;;;;;;3.78;2.80;;;;;;;10.03;61.35;95379.41;6100022;23;20013;-86
2023/11/16 01:03:06;;;;;;;6.97;2.90;;;;;;;10.10;60.97;95369.94;6076067;23;20009;-86
2023/11/16 01:13:23;;;;;;;3.80;2.95;;;;;;;10.02;61.17;95383.00;6124901;23;20030;-86
2023/11/16 01:15:51;;;;;;;3.83;2.30;;;;;;;10.02;60.91;95383.00;6099697;23;20093;-85
2023/11/16 01:18:18;;;;;;;5.32;2.70;;;;;;;9.92;61.04;95392.78;6075435;23;20018;-87
2023/11/16 01:20:48;;;;;;;4.57;2.47;;;;;;;9.51;62.08;95378.13;6075962;23;20024;-85
2023/11/16 01:23:16;;;;;;;3.03;2.63;;;;;;;9.55;62.62;95389.81;6099651;23;20021;-86
2023/11/16 01:28:18;;;;;;;4.85;2.45;;;;;;;9.58;62.18;95391.28;6125591;23;20010;-86
2023/11/16 01:30:43;;;;;;;3.67;2.25;;;;;;;9.54;61.99;95383.00;6099934;23;20029;-87
2023/11/16 01:33:09;;;;;;;4.25;2.00;;;;;;;9.68;61.17;95372.91;6124102;23;20002;-87
2023/11/16 01:35:36;;;;;;;3.40;2.20;;;;;;;9.82;60.63;95376.59;6100090;23;20018;-87
2023/11/16 01:38:05;;;;;;;3.55;2.15;;;;;;;9.76;60.94;95371.06;6100710;23;20078;-86
2023/11/16 01:42:57;;;;;;;2.45;2.10;;;;;;;9.69;60.88;95372.75;6113503;23;20013;-87
2023/11/16 01:45:32;;;;;;;4.53;2.20;;;;;;;9.79;60.12;95375.16;6075515;23;20017;-86
2023/11/16 01:50:32;;;;;;;4.82;2.20;;;;;;;9.76;60.32;95378.88;6121250;23;20033;-87
2023/11/16 01:53:10;;;;;;;3.92;2.25;;;;;;;9.63;60.29;95367.41;6128674;23;20009;-86
2023/11/16 01:55:40;;;;;;;3.25;2.00;;;;;;;9.45;61.61;95378.00;6128840;23;20002;-86
2023/11/16 01:58:05;;;;;;;3.75;1.80;;;;;;;9.57;60.41;95364.50;6128561;23;20017;-86
2023/11/16 02:00:41;;;;;;;3.45;2.30;;;;;;;9.50;60.18;95360.13;6104687;23;20020;-86
2023/11/16 02:03:07;;;;;;;3.63;2.00;;;;;;;9.50;60.45;95367.91;6133814;23;20036;-86
2023/11/16 02:10:43;;;;;;;4.78;1.75;;;;;;;9.37;60.03;95342.50;6134455;23;20036;-86
2023/11/16 02:13:17;;;;;;;3.97;1.60;;;;;;;9.20;60.59;95346.91;6076179;23;20021;-86
2023/11/16 02:15:44;;;;;;;3.42;1.40;;;;;;;9.28;59.55;95331.31;6098881;23;20001;-85
2023/11/16 02:18:13;;;;;;;3.15;1.27;;;;;;;9.49;59.08;95322.19;6099253;23;20006;-85
2023/11/16 02:20:44;;;;;;;4.55;1.50;;;;;;;9.33;59.20;95316.06;6098014;23;20010;-87
2023/11/16 02:23:12;;;;;;;4.47;1.30;;;;;;;9.50;58.73;95316.81;6098098;23;20081;-87
2023/11/16 02:25:49;;;;;;;2.22;1.20;;;;;;;9.50;57.99;95311.63;6110246;23;19997;-86
2023/11/16 02:30:40;;;;;;;2.17;1.70;;;;;;;9.23;58.96;95284.28;6124117;23;20056;-86
2023/11/16 02:33:06;;;;;;;2.10;1.40;;;;;;;9.06;59.02;95265.34;6130303;23;20063;-86
2023/11/16 02:35:35;;;;;;;2.45;1.40;;;;;;;8.61;61.79;95267.56;6128519;23;20009;-86
2023/11/16 02:38:01;;;;;;;1.65;1.38;;;;;;;8.94;59.89;95257.13;6128134;23;20014;-86
2023/11/16 02:40:27;;;;;;;4.90;1.50;;;;;;;9.14;59.26;95254.19;6128176;23;20005;-87
2023/11/16 02:42:55;;;;;;;5.15;1.60;;;;;;;9.14;58.84;95261.97;6127608;23;20085;-86
2023/11/16 02:45:23;;;;;;;2.95;1.45;;;;;;;9.15;59.31;95266.97;6128137;23;20029;-86
2023/11/16 02:47:54;;;;;;;4.30;1.60;;;;;;;9.08;58.69;95265.19;6128510;23;20006;-87
2023/11/16 02:50:22;;;;;;;4.40;1.75;;;;;;;9.04;59.24;95254.34;6128637;23;20052;-87
2023/11/16 02:52:50;;;;;;;4.72;1.70;;;;;;;8.59;60.52;95256.56;6128496;23;20008;-87
2023/11/16 02:55:25;;;;;;;2.70;1.52;;;;;;;8.63;60.55;95254.44;6104068;23;20009;-87
2023/11/16 02:57:55;;;;;;;2.38;1.73;;;;;;;8.34;61.22;95247.13;6105401;23;20010;-86
2023/11/16 03:00:24;;;;;;;2.67;1.45;;;;;;;8.26;61.01;95226.41;6128401;23;20006;-87
2023/11/16 03:11:13;;;;;;;5.97;1.60;;;;;;;8.39;61.10;95226.72;6120608;23;20022;-86
2023/11/16 03:13:39;;;;;;;2.67;1.60;;;;;;;8.14;62.30;95220.75;6074541;23;20010;-86
2023/11/16 03:16:07;;;;;;;3.67;1.60;;;;;;;8.23;62.05;95224.97;6097534;23;20010;-87
2023/11/16 03:18:35;;;;;;;2.35;1.55;;;;;;;8.33;61.58;95219.63;6098494;23;20006;-86
2023/11/16 03:21:01;;;;;;;3.85;1.60;;;;;;;8.24;61.83;95213.63;6098411;23;20009;-87
2023/11/16 03:23:27;;;;;;;2.28;1.40;;;;;;;8.49;61.15;95213.63;6098420;23;20034;-87
2023/11/16 03:25:55;;;;;;;3.38;1.70;;;;;;;8.48;61.33;95212.81;6098730;23;20009;-87
2023/11/16 03:28:21;;;;;;;3.22;1.90;;;;;;;8.15;62.29;95207.66;6098423;23;20018;-87
2023/11/16 03:30:46;;;;;;;5.43;1.70;;;;;;;8.25;62.35;95206.69;6074969;23;20014;-86
2023/11/16 03:33:12;;;;;;;2.90;1.65;;;;;;;8.29;62.51;95198.41;6098644;23;20037;-86
2023/11/16 03:38:12;;;;;;;2.97;1.50;;;;;;;8.64;60.80;95187.84;6110002;23;20026;-86
2023/11/16 03:40:38;;;;;;;3.00;1.58;;;;;;;8.73;60.73;95184.25;6098596;23;20014;-87
2023/11/16 03:43:03;;;;;;;3.15;1.42;;;;;;;8.59;60.81;95165.81;6098450;23;20025;-86
2023/11/16 03:45:32;;;;;;;4.00;1.33;;;;;;;8.64;60.89;95174.88;6098421;23;20017;-86
2023/11/16 03:53:02;;;;;;;3.47;1.35;;;;;;;8.11;62.16;95159.72;6136164;23;20022;-86
2023/11/16 03:55:27;;;;;;;3.97;1.50;;;;;;;8.35;61.64;95165.84;6074382;23;20035;-85
2023/11/16 03:57:53;;;;;;;2.30;1.40;;;;;;;8.45;61.26;95160.50;6098548;23;20013;-86
2023/11/16 04:10:31;;;;;;;5.88;1.40;;;;;;;8.68;60.10;95143.28;6099388;23;20066;-86
2023/11/16 04:12:57;;;;;;;2.50;1.40;;;;;;;8.80;59.93;95151.50;6096897;23;20018;-86
2023/11/16 04:15:25;;;;;;;2.85;1.30;;;;;;;8.65;59.82;95150.59;6123154;23;20018;-85
2023/11/16 04:17:54;;;;;;;3.17;1.40;;;;;;;8.69;60.02;95162.22;6147387;23;20002;-86
2023/11/16 04:20:19;;;;;;;5.38;1.40;;;;;;;8.68;60.04;95147.63;6147480;23;20010;-86
2023/11/16 04:25:19;;;;;;;4.05;1.30;;;;;;;8.73;59.92;95147.94;6117189;23;20078;-87
2023/11/16 04:27:48;;;;;;;2.67;1.02;;;;;;;8.50;60.32;95137.50;6069035;23;20089;-87
2023/11/16 04:30:16;;;;;;;3.43;1.10;;;;;;;8.43;59.47;95136.53;6069558;23;20010;-86
2023/11/16 04:32:42;;;;;;;4.07;1.80;;;;;;;8.38;59.69;95126.66;6070073;23;20233;-86
2023/11/16 04:35:09;;;;;;;3.65;1.70;;;;;;;8.14;59.98;95128.28;6071572;23;20010;-86
2023/11/16 04:37:38;;;;;;;4.45;1.63;;;;;;;7.78;61.30;95131.25;6071355;23;20133;-86
2023/11/16 04:40:13;;;;;;;4.57;2.10;;;;;;;7.80;61.39;95136.25;6071474;23;20018;-86
2023/11/16 04:42:39;;;;;;;7.60;2.45;;;;;;;7.44;63.02;95115.84;6142743;23;20018;-86
2023/11/16 04:45:09;;;;;;;4.30;1.90;;;;;;;7.62;61.77;95123.50;6119859;23;20001;-86
2023/11/16 04:47:37;;;;;;;4.07;2.20;;;;;;;7.57;61.73;95110.22;6102829;23;20010;-86
2023/11/16 04:50:06;;;;;;;4.75;1.75;;;;;;;7.53;61.86;95111.50;6078128;23;20296;-86
2023/11/16 04:52:34;;;;;;;4.57;1.52;;;;;;;7.46;62.18;95113.13;6100505;23;20005;-86
2023/11/16 04:55:00;;;;;;;3.65;1.50;;;;;;;7.66;61.28;95119.59;6100840;23;20017;-86
2023/11/16 04:57:26;;;;;;;5.75;1.40;;;;;;;7.89;61.13;95113.78;6092485;23;20019;-86
2023/11/16 04:59:53;;;;;;;4.97;1.58;;;;;;;7.62;62.15;95097.59;6069889;23;20248;-86
2023/11/16 05:02:19;;;;;;;3.60;1.20;;;;;;;7.69;61.40;95087.41;6070179;23;20010;-86
2023/11/16 05:04:45;;;;;;;3.63;1.48;;;;;;;7.76;61.62;95089.16;6070363;23;20036;-86
2023/11/16 05:07:14;;;;;;;4.03;1.60;;;;;;;7.57;62.46;95081.75;6070860;23;20025;-86
2023/11/16 05:09:41;;;;;;;4.47;1.40;;;;;;;7.66;62.07;95088.53;6070613;23;20017;-86
2023/11/16 05:12:08;;;;;;;4.28;1.23;;;;;;;7.77;61.63;95092.59;6070957;23;20013;-86
2023/11/16 05:14:34;;;;;;;3.03;1.30;;;;;;;7.52;62.42;95091.75;6070914;23;19998;-86
2023/11/16 05:17:03;;;;;;;5.15;1.13;;;;;;;7.78;61.36;95089.00;6070838;23;20129;-86
2023/11/16 05:19:29;;;;;;;6.07;1.50;;;;;;;8.00;60.79;95090.13;6072356;23;20050;-86
2023/11/16 05:24:31;;;;;;;3.00;1.20;;;;;;;7.83;61.15;95074.59;6125287;23;20034;-86
2023/11/16 05:27:02;;;;;;;6.72;2.00;;;;;;;7.68;61.80;95073.66;6099497;23;20025;-86
2023/11/16 05:29:34;;;;;;;3.88;1.35;;;;;;;7.73;61.52;95071.38;6099850;23;20029;-86
2023/11/16 05:31:59;;;;;;;3.88;1.30;;;;;;;7.95;60.83;95077.66;6099389;23;20009;-87
2023/11/16 05:34:27;;;;;;;3.72;1.40;;;;;;;7.58;61.32;95055.69;6099567;23;20085;-86
2023/11/16 05:36:55;;;;;;;3.42;1.20;;;;;;;7.77;61.09;95070.09;6098843;23;20006;-86
2023/11/16 05:47:08;;;;;;;3.28;1.30;;;;;;;7.42;62.07;95069.47;6124765;23;20026;-86
2023/11/16 05:49:36;;;;;;;3.35;1.20;;;;;;;7.62;61.36;95058.78;6099101;23;20041;-85
2023/11/16 05:52:02;;;;;;;3.67;1.20;;;;;;;7.34;62.18;95079.78;6075391;23;20161;-86
2023/11/16 05:54:28;;;;;;;5.00;1.55;;;;;;;7.62;61.69;95082.06;6099809;23;20002;-86
2023/11/16 05:59:19;;;;;;;3.83;1.50;;;;;;;7.97;60.41;95078.28;6125049;23;20014;-86
2023/11/16 06:01:46;;;;;;;4.95;1.48;;;;;;;7.76;60.69;95052.91;6098129;23;20048;-87
2023/11/16 06:04:11;;;;;;;6.00;1.60;;;;;;;7.24;61.98;95061.03;6098526;23;20057;-86
2023/11/16 06:06:37;;;;;;;4.88;1.63;;;;;;;7.32;62.14;95068.00;6099368;23;20013;-86
2023/11/16 06:09:03;;;;;;;3.72;1.40;;;;;;;7.68;60.72;95055.53;6103922;23;20002;-86
2023/11/16 06:11:29;;;;;;;3.22;1.40;;;;;;;7.48;60.96;95043.88;6129036;23;20012;-86
2023/11/16 06:13:55;;;;;;;3.25;1.30;;;;;;;7.62;60.72;95058.78;6128522;23;20006;-86
2023/11/16 06:16:28;;;;;;;2.13;1.10;;;;;;;7.38;61.16;95060.38;6128583;23;20005;-86
2023/11/16 06:18:54;;;;;;;4.18;1.45;;;;;;;7.44;60.69;95056.34;6128218;23;20016;-86
2023/11/16 06:21:19;;;;;;;4.10;1.45;;;;;;;7.33;61.43;95060.06;6104249;23;20091;-87
2023/11/16 06:28:50;;;;;;;2.83;1.60;;;;;;;7.27;61.41;95042.59;6153345;23;20022;-87
2023/11/16 06:31:16;;;;;;;4.28;1.63;;;;;;;7.53;60.57;95039.03;6128842;23;20035;-87
2023/11/16 06:33:41;;;;;;;5.55;1.50;;;;;;;7.56;60.04;95026.59;6128448;23;20009;-87
2023/11/16 06:36:10;;;;;;;4.15;1.40;;;;;;;7.64;60.42;95041.31;6104199;23;20009;-87
2023/11/16 06:38:36;;;;;;;6.75;1.65;;;;;;;7.47;60.90;95024.19;6128790;23;20001;-87
2023/11/16 06:41:01;;;;;;;4.63;1.60;;;;;;;7.65;60.14;95024.78;6128840;23;20006;-87
2023/11/16 06:43:27;;;;;;;4.65;1.80;;;;;;;7.63;60.39;95034.50;6128411;23;20013;-87
2023/11/16 06:45:52;;;;;;;4.47;1.83;;;;;;;7.67;60.08;95029.81;6122740;23;20108;-87
2023/11/16 06:48:19;;;;;;;2.85;1.20;;;;;;;7.48;60.36;95025.78;6098523;23;20069;-88
2023/11/16 06:50:45;;;;;;;4.63;1.50;;;;;;;7.38;60.67;95031.13;6099123;23;20010;-88
2023/11/16 06:53:11;;;;;;;1.90;1.23;;;;;;;7.62;60.49;95028.50;6075046;23;20045;-87
2023/11/16 07:00:39;;;;;;;3.25;1.65;;;;;;;7.82;59.67;95004.84;6127155;23;20026;-85
2023/11/16 07:03:09;;;;;;;5.38;1.73;;;;;;;8.22;58.95;95021.25;6128724;23;20005;-87
2023/11/16 07:05:35;;;;;;;5.28;1.50;;;;;;;8.20;59.68;94998.09;6104255;23;20010;-87
2023/11/16 07:08:02;;;;;;;2.10;1.30;;;;;;;8.35;59.12;95007.75;6128196;23;20085;-86
2023/11/16 07:10:28;;;;;;;2.15;1.20;;;;;;;8.48;57.99;94996.88;6127464;23;20009;-86
2023/11/16 07:12:56;;;;;;;26.70;2.97;;;;;;;8.68;57.45;94997.25;6128041;23;20009;-86
2023/11/16 07:15:21;;;;;;;8.93;1.73;;;;;;;8.83;56.65;94987.75;6127575;23;20016;-86
2023/11/16 07:17:50;;;;;;;16.73;2.33;;;;;;;8.57;57.78;94968.16;6128077;23;20017;-86
2023/11/16 07:20:16;;;;;;;4.57;1.60;;;;;;;8.79;56.82;94970.94;6127626;23;20013;-86
2023/11/16 07:27:52;;;;;;;8.18;2.00;;;;;;;8.97;56.86;94966.28;6152207;23;20022;-86
2023/11/16 07:30:17;;;;;;;7.90;2.38;;;;;;;9.05;57.49;94969.78;6102732;23;20009;-86
2023/11/16 07:32:43;;;;;;;63.40;7.88;;;;;;;9.32;57.45;94963.25;6102486;23;20005;-86
2023/11/16 07:35:30;;;;;;;12.32;2.80;;;;;;;9.49;56.02;94953.50;6127166;23;20013;-86
2023/11/16 07:37:57;;;;;;;4.90;2.20;;;;;;;9.90;56.11;94948.72;6150568;23;20006;-85
2023/11/16 07:40:24;;;;;;;23.92;3.90;;;;;;;10.14;55.55;94952.78;6102737;23;20035;-87
2023/11/16 07:42:49;;;;;;;7.68;2.20;;;;;;;10.43;53.66;94948.56;6126865;23;20056;-86
2023/11/16 07:45:15;;;;;;;6.65;2.30;;;;;;;10.98;52.80;94950.72;6126297;23;20009;-85
2023/11/16 07:50:11;;;;;;;5.78;2.90;;;;;;;11.24;52.79;94939.75;6128746;23;20037;-86
2023/11/16 07:52:43;;;;;;;3.45;2.08;;;;;;;11.58;50.47;94951.22;6072787;23;20075;-86
2023/11/16 07:57:47;;;;;;;12.43;5.68;;;;;;;11.30;52.56;94938.97;6122765;23;20029;-86
2023/11/16 08:00:26;;;;;;;14.18;7.22;;;;;;;11.23;52.35;94938.94;6097990;23;20021;-86
2023/11/16 08:05:44;;;;;;;6.85;2.38;;;;;;;11.51;53.24;94945.94;6122626;23;20077;-87
2023/11/16 08:08:14;;;;;;;5.38;2.70;;;;;;;11.45;52.99;94925.88;6120467;23;20002;-86
2023/11/16 08:10:40;;;;;;;4.90;1.88;;;;;;;11.66;51.87;94933.63;6097764;23;20041;-86
2023/11/16 08:13:06;;;;;;;4.00;2.10;;;;;;;12.23;52.43;94934.34;6121445;23;20008;-86
2023/11/16 08:15:32;;;;;;;4.57;2.47;;;;;;;13.10;50.61;94945.81;6120671;23;20088;-87
2023/11/16 08:18:01;;;;;;;3.40;1.15;;;;;;;14.09;46.97;94943.31;6096323;23;20038;-86
2023/11/16 08:20:28;;;;;;;40.78;18.90;;;;;;;14.22;46.27;94926.75;6121010;23;20002;-87
2023/11/16 08:25:33;;;;;;;5.72;2.97;;;;;;;15.25;44.23;94931.06;6121592;23;20029;-86
2023/11/16 08:28:00;;;;;;;6.23;1.73;;;;;;;15.20;45.04;94926.44;6120185;23;20037;-86
2023/11/16 08:30:26;;;;;;;5.18;2.47;;;;;;;15.67;43.26;94920.81;6096286;23;20013;-85
2023/11/16 08:32:53;;;;;;;3.90;2.10;;;;;;;15.67;43.14;94925.25;6096969;23;20012;-86
2023/11/16 08:35:23;;;;;;;3.72;1.20;;;;;;;15.10;45.72;94922.69;6096689;23;20080;-86
2023/11/16 08:37:48;;;;;;;1.95;1.00;;;;;;;15.36;44.87;94919.88;6077268;23;20149;-85
2023/11/16 08:40:18;;;;;;;2.22;1.10;;;;;;;15.12;45.42;94916.25;6125320;23;20029;-86
2023/11/16 08:58:06;;;;;;;3.05;1.70;;;;;;;13.25;48.66;94908.22;6143159;23;20017;-86
2023/11/16 09:00:35;;;;;;;18.60;11.18;;;;;;;13.09;47.41;94907.63;6097073;23;20021;-86
2023/11/16 09:03:07;;;;;;;8.27;3.25;;;;;;;12.89;48.92;94905.03;6096874;23;20010;-86
2023/11/16 09:05:35;;;;;;;16.02;10.02;;;;;;;12.69;50.87;94896.34;6096927;23;20013;-86
2023/11/16 09:08:01;;;;;;;4.88;3.28;;;;;;;12.80;49.00;94890.56;6096132;23;20006;-87
2023/11/16 09:10:27;;;;;;;3.20;2.28;;;;;;;12.65;49.59;94885.50;6097069;23;20092;-86
2023/11/16 09:12:55;;;;;;;3.15;2.10;;;;;;;12.61;50.89;94901.78;6097286;23;20041;-86
2023/11/16 09:17:51;;;;;;;2.08;1.50;;;;;;;12.42;51.39;94888.47;6121982;23;20041;-86
2023/11/16 09:20:20;;;;;;;3.13;1.50;;;;;;;12.58;51.25;94910.78;6098774;23;20009;-86
2023/11/16 09:25:15;;;;;;;3.83;3.00;;;;;;;12.31;50.96;94883.81;6125360;23;20081;-87
2023/11/16 09:27:51;;;;;;;3.72;2.50;;;;;;;11.93;51.78;94889.50;6098839;23;20016;-86
2023/11/16 09:30:26;;;;;;;3.15;1.88;;;;;;;12.02;51.62;94906.59;6098890;23;20010;-86
2023/11/16 09:32:54;;;;;;;4.80;2.60;;;;;;;11.79;51.63;94896.44;6097972;23;20058;-86
2023/11/16 09:35:23;;;;;;;5.00;1.70;;;;;;;12.19;50.26;94911.47;6097783;23;20010;-86
2023/11/16 09:37:52;;;;;;;3.33;1.60;;;;;;;11.78;51.09;94914.84;6097977;23;20020;-86
2023/11/16 09:40:21;;;;;;;3.10;1.65;;;;;;;11.52;53.44;94921.53;6098135;23;20010;-86
2023/11/16 09:43:00;;;;;;;2.08;1.27;;;;;;;11.40;53.82;94907.41;6097497;23;20010;-86
2023/11/16 09:45:32;;;;;;;1.90;1.45;;;;;;;11.42;52.97;94915.81;6098622;23;20077;-86
2023/11/16 09:48:04;;;;;;;4.50;1.70;;;;;;;11.27;53.73;94908.94;6098514;23;20033;-87
2023/11/16 09:52:59;;;;;;;2.90;1.40;;;;;;;11.20;53.15;94913.28;6126064;23;20080;-87
2023/11/16 09:55:30;;;;;;;3.58;1.55;;;;;;;11.20;53.99;94912.47;6098172;23;20091;-86
2023/11/16 09:58:04;;;;;;;2.28;1.20;;;;;;;11.37;53.93;94913.00;6098188;23;20013;-87
2023/11/16 10:00:34;;;;;;;1.98;1.20;;;;;;;11.35;52.18;94906.19;6098458;23;20009;-86
2023/11/16 10:05:40;;;;;;;2.20;1.40;;;;;;;11.41;54.02;94885.59;6121070;23;20125;-87
2023/11/16 10:08:14;;;;;;;2.95;1.45;;;;;;;11.43;53.20;94888.81;6078663;23;20009;-86
2023/11/16 10:10:56;;;;;;;1.35;1.23;;;;;;;11.35;54.08;94871.53;6100491;23;20006;-87
2023/11/16 10:13:24;;;;;;;2.15;1.60;;;;;;;11.24;50.58;94853.84;6097079;23;20014;-86
2023/11/16 10:18:24;;;;;;;2.85;1.58;;;;;;;10.46;53.74;94827.81;6126456;23;20030;-86
2023/11/16 10:20:50;;;;;;;2.65;1.40;;;;;;;10.36;53.56;94821.13;6074130;23;20041;-85
2023/11/16 10:23:19;;;;;;;3.60;1.70;;;;;;;9.83;54.97;94809.34;6097836;23;20077;-86
2023/11/16 10:25:47;;;;;;;3.03;1.50;;;;;;;9.82;55.47;94792.13;6074306;23;20009;-86
2023/11/16 10:28:23;;;;;;;3.13;1.70;;;;;;;9.28;56.18;94773.31;6121583;23;20073;-87
2023/11/16 10:35:52;;;;;;;2.65;1.40;;;;;;;9.97;55.57;94740.94;6123294;23;20029;-87
2023/11/16 10:38:21;;;;;;;3.78;1.63;;;;;;;10.33;54.49;94720.09;6097383;23;20058;-87
2023/11/16 10:43:17;;;;;;;14.23;6.55;;;;;;;10.37;55.19;94658.13;6134633;23;20033;-85
2023/11/16 10:45:43;;;;;;;1.98;1.65;;;;;;;10.54;54.92;94638.63;6096922;23;20014;-88
2023/11/16 10:48:13;;;;;;;1.90;1.10;;;;;;;11.04;53.07;94614.25;6097265;23;20010;-86
2023/11/16 10:50:42;;;;;;;2.47;1.10;;;;;;;11.11;52.56;94591.66;6074395;23;20014;-86
2023/11/16 10:53:17;;;;;;;1.65;1.17;;;;;;;10.79;52.70;94567.16;6097743;23;20010;-86
2023/11/16 10:55:46;;;;;;;2.50;1.27;;;;;;;11.26;51.99;94557.66;6097961;23;20010;-86
2023/11/16 10:58:13;;;;;;;35.40;20.90;;;;;;;11.44;51.12;94518.03;6097004;23;20002;-86
2023/11/16 11:03:06;;;;;;;43.83;27.02;;;;;;;11.82;51.62;94475.72;6134311;23;20029;-86
2023/11/16 11:05:31;;;;;;;14.00;8.15;;;;;;;11.98;50.09;94471.94;6097638;23;20035;-87
2023/11/16 11:08:07;;;;;;;4.22;2.60;;;;;;;12.06;48.45;94445.63;6097529;23;20014;-87
2023/11/16 11:10:33;;;;;;;10.02;6.47;;;;;;;12.36;50.28;94439.91;6098162;23;20032;-87
2023/11/16 11:15:36;;;;;;;3.53;2.03;;;;;;;12.64;50.74;94410.88;6128443;23;20026;-86
2023/11/16 11:18:04;;;;;;;3.40;1.00;;;;;;;12.71;52.11;94382.94;6097373;23;20024;-86
2023/11/16 11:20:30;;;;;;;1.80;1.25;;;;;;;12.95;49.31;94351.88;6098089;23;20014;-86
2023/11/16 11:23:04;;;;;;;2.63;1.70;;;;;;;12.57;49.92;94352.75;6097444;23;20073;-86
2023/11/16 11:25:31;;;;;;;3.30;1.40;;;;;;;12.74;52.07;94339.94;6073517;23;20010;-86
2023/11/16 11:27:57;;;;;;;2.38;1.08;;;;;;;12.17;49.65;94311.25;6073825;23;20009;-86
2023/11/16 11:30:27;;;;;;;2.58;1.75;;;;;;;12.42;50.13;94300.88;6097933;23;20024;-86
2023/11/16 11:32:59;;;;;;;2.67;0.80;;;;;;;12.61;49.35;94306.97;6097511;23;20014;-86
2023/11/16 11:35:25;;;;;;;2.55;1.00;;;;;;;12.86;49.51;94260.78;6096729;23;20006;-87
2023/11/16 11:40:22;;;;;;;2.03;1.00;;;;;;;13.02;51.55;94253.38;6123183;23;20029;-86
2023/11/16 11:42:50;;;;;;;2.50;0.95;;;;;;;13.11;50.55;94226.78;6072974;23;20020;-86
2023/11/16 11:45:19;;;;;;;2.00;0.90;;;;;;;12.98;48.59;94210.47;6098447;23;20017;-87
2023/11/16 11:47:47;;;;;;;2.50;1.10;;;;;;;12.82;49.68;94204.81;6120921;23;20006;-86
2023/11/16 11:50:24;;;;;;;1.80;1.15;;;;;;;12.69;49.70;94191.88;6121249;23;20087;-87
2023/11/16 11:55:16;;;;;;;1.70;1.03;;;;;;;12.13;51.58;94134.41;6125786;23;20032;-86
2023/11/16 11:57:43;;;;;;;3.55;1.23;;;;;;;12.40;50.91;94115.94;6127474;23;20224;-86
2023/11/16 12:00:11;;;;;;;1.77;1.30;;;;;;;12.37;49.76;94111.13;6101837;23;20012;-86
2023/11/16 12:02:40;;;;;;;2.60;1.10;;;;;;;12.49;50.51;94114.63;6102643;23;20009;-85
2023/11/16 12:05:16;;;;;;;3.22;1.30;;;;;;;12.06;50.42;94091.19;6126648;23;20008;-86
2023/11/16 12:07:54;;;;;;;4.82;2.17;;;;;;;11.98;50.06;94071.41;6125998;23;20014;-86
2023/11/16 12:12:45;;;;;;;3.15;2.10;;;;;;;12.28;49.61;94039.41;6126100;23;20115;-86
2023/11/16 12:15:13;;;;;;;4.75;3.63;;;;;;;12.00;49.54;94032.09;6073262;23;20013;-85
2023/11/16 12:17:39;;;;;;;2.78;1.15;;;;;;;12.37;49.20;94016.47;6073538;23;20013;-86
2023/11/16 12:20:05;;;;;;;2.97;1.50;;;;;;;12.28;51.00;94008.94;6096731;23;20006;-87
2023/11/16 12:22:31;;;;;;;2.63;1.20;;;;;;;12.25;51.68;94030.22;6072062;23;20021;-86
2023/11/16 12:24:59;;;;;;;2.45;1.63;;;;;;;12.12;51.77;94056.44;6098675;23;20022;-86
2023/11/16 12:27:26;;;;;;;2.15;1.45;;;;;;;11.86;52.38;94089.50;6068248;23;20010;-86
2023/11/16 12:30:00;;;;;;;1.67;1.20;;;;;;;11.86;49.85;94143.41;6091896;23;20042;-86
2023/11/16 12:32:25;;;;;;;1.77;1.02;;;;;;;11.97;50.19;94181.06;6092243;23;20014;-86
2023/11/16 12:34:54;;;;;;;1.15;1.00;;;;;;;11.64;49.87;94216.69;6092162;23;20002;-86
2023/11/16 12:39:47;;;;;;;3.13;1.10;;;;;;;11.52;49.74;94231.38;6140712;23;20021;-86
2023/11/16 12:42:12;;;;;;;1.80;1.10;;;;;;;11.72;48.71;94215.66;6072228;23;20041;-87
2023/11/16 12:44:38;;;;;;;1.50;0.82;;;;;;;11.83;48.51;94208.97;6097224;23;20065;-87
2023/11/16 12:47:03;;;;;;;1.08;0.70;;;;;;;11.74;45.92;94219.63;6097135;23;20037;-85
2023/11/16 12:49:29;;;;;;;1.48;0.82;;;;;;;11.74;46.50;94227.44;6096952;23;20009;-85
2023/11/16 12:51:54;;;;;;;1.58;1.08;;;;;;;11.11;50.98;94230.72;6097432;23;20268;-86
2023/11/16 12:54:21;;;;;;;2.50;1.10;;;;;;;11.00;48.76;94243.56;6098240;23;20002;-85
2023/11/16 12:56:52;;;;;;;2.03;1.15;;;;;;;11.32;47.58;94258.28;6099740;23;20005;-86
2023/11/16 12:59:21;;;;;;;1.52;1.05;;;;;;;11.42;49.04;94241.44;6099308;23;20014;-85
2023/11/16 13:01:47;;;;;;;2.22;1.40;;;;;;;11.09;49.83;94250.16;6076050;23;20021;-85
2023/11/16 13:06:38;;;;;;;2.53;1.50;;;;;;;11.25;50.91;94283.56;6130433;23;20022;-86
2023/11/16 13:09:04;;;;;;;2.58;1.60;;;;;;;11.51;49.71;94305.28;6097820;23;20028;-86
2023/11/16 13:11:29;;;;;;;2.92;1.40;;;;;;;11.09;52.69;94321.19;6073358;23;20093;-86
2023/11/16 13:13:55;;;;;;;3.30;1.60;;;;;;;11.11;54.06;94350.44;6074247;23;20009;-85
2023/11/16 13:16:20;;;;;;;3.58;1.70;;;;;;;11.10;54.59;94366.22;6098794;23;20006;-85
2023/11/16 13:18:48;;;;;;;3.63;1.52;;;;;;;11.35;54.21;94395.84;6098345;23;20013;-86
2023/11/16 13:21:14;;;;;;;2.40;1.48;;;;;;;11.13;55.99;94395.25;6098469;23;20042;-86
2023/11/16 13:23:40;;;;;;;2.17;1.42;;;;;;;11.32;54.74;94393.66;6074170;23;20010;-85
2023/11/16 13:26:06;;;;;;;2.50;1.55;;;;;;;11.09;56.15;94440.91;6072986;23;20019;-85
2023/11/16 13:28:35;;;;;;;3.25;1.80;;;;;;;11.21;57.12;94425.50;6040623;23;20018;-86
2023/11/16 13:31:01;;;;;;;4.60;1.70;;;;;;;11.28;57.07;94428.91;6040590;23;20006;-85
2023/11/16 13:33:27;;;;;;;2.80;1.77;;;;;;;11.10;58.52;94439.94;6017528;23;20010;-86
2023/11/16 13:35:52;;;;;;;3.42;2.10;;;;;;;11.18;57.77;94431.13;6040644;23;20006;-85
2023/11/16 13:38:18;;;;;;;6.18;2.17;;;;;;;11.13;57.72;94417.91;6040377;23;20038;-85
2023/11/16 13:40:43;;;;;;;3.22;1.67;;;;;;;11.08;57.19;94405.50;6029320;23;20022;-85
2023/11/16 13:43:09;;;;;;;3.30;1.92;;;;;;;10.90;57.18;94415.69;6062181;23;20010;-87
2023/11/16 13:45:35;;;;;;;3.22;1.70;;;;;;;10.52;58.88;94419.63;6044180;23;20014;-86
2023/11/16 13:48:04;;;;;;;4.38;2.05;;;;;;;10.39;59.66;94440.38;6042828;23;20018;-86
2023/11/16 13:50:29;;;;;;;4.78;2.28;;;;;;;10.38;60.12;94423.19;6041903;23;20085;-88
2023/11/16 13:55:20;;;;;;;5.13;2.20;;;;;;;10.07;60.73;94421.03;6126523;23;20084;-85
2023/11/16 13:57:46;;;;;;;2.72;1.90;;;;;;;10.05;61.35;94416.06;6103893;23;20021;-85
2023/11/16 14:00:15;;;;;;;3.53;2.03;;;;;;;9.88;61.31;94386.19;6079818;23;20017;-85
2023/11/16 14:02:41;;;;;;;3.95;2.38;;;;;;;9.84;61.42;94372.00;6103367;23;20041;-85
2023/11/16 14:05:08;;;;;;;4.10;2.20;;;;;;;9.50;62.79;94368.44;6127401;23;20084;-85
2023/11/16 14:07:37;;;;;;;5.22;1.98;;;;;;;9.80;61.30;94361.19;6128373;23;20021;-85
2023/11/16 14:10:10;;;;;;;3.35;2.25;;;;;;;9.90;61.69;94368.63;6104465;23;20009;-86
2023/11/16 14:12:41;;;;;;;3.63;2.00;;;;;;;9.46;62.75;94352.47;6103853;23;20093;-86
2023/11/16 14:15:10;;;;;;;3.05;2.00;;;;;;;9.99;60.91;94367.44;6104286;23;20035;-86
2023/11/16 14:17:38;;;;;;;4.10;1.95;;;;;;;10.27;60.28;94372.53;6128548;23;20064;-86
2023/11/16 14:20:07;;;;;;;2.90;1.80;;;;;;;10.74;59.23;94359.66;6103897;23;20041;-87